sensor_id;sensor_type;location;lat;lon;timestamp;pressure;altitude;pressure_sealevel;temperature;humidity
62436;BME280;48480;50.252;18.848;2023-01-30T00:01:22;98771.79;;;-1.70;64.32
62436;BME280;48480;50.252;18.848;2023-01-30T00:03:49;98759.64;;;-1.75;64.30
62436;BME280;48480;50.252;18.848;2023-01-30T00:06:14;98753.76;;;-1.79;64.51
62436;BME280;48480;50.252;18.848;2023-01-30T00:08:40;98750.58;;;-1.82;64.53
62436;BME280;48480;50.252;18.848;2023-01-30T00:11:08;98743.77;;;-1.85;64.69
62436;BME280;48480;50.252;18.848;2023-01-30T00:13:34;98738.45;;;-1.88;64.90
62436;BME280;48480;50.252;18.848;2023-01-30T00:16:00;98733.63;;;-1.90;65.06
62436;BME280;48480;50.252;18.848;2023-01-30T00:18:25;98721.64;;;-1.94;64.91
62436;BME280;48480;50.252;18.848;2023-01-30T00:20:59;98720.45;;;-1.93;65.23
62436;BME280;48480;50.252;18.848;2023-01-30T00:23:25;98708.83;;;-1.98;65.33
62436;BME280;48480;50.252;18.848;2023-01-30T00:25:52;98701.69;;;-2.02;65.44
62436;BME280;48480;50.252;18.848;2023-01-30T00:28:17;98704.80;;;-2.04;65.50
62436;BME280;48480;50.252;18.848;2023-01-30T00:30:43;98709.20;;;-2.06;65.47
62436;BME280;48480;50.252;18.848;2023-01-30T00:33:10;98709.15;;;-2.13;65.61
62436;BME280;48480;50.252;18.848;2023-01-30T00:35:36;98695.89;;;-2.18;65.81
62436;BME280;48480;50.252;18.848;2023-01-30T00:38:02;98693.31;;;-2.23;65.95
62436;BME280;48480;50.252;18.848;2023-01-30T00:40:28;98697.92;;;-2.27;66.16
62436;BME280;48480;50.252;18.848;2023-01-30T00:42:54;98692.33;;;-2.33;66.41
62436;BME280;48480;50.252;18.848;2023-01-30T00:45:41;98689.65;;;-2.39;66.62
62436;BME280;48480;50.252;18.848;2023-01-30T00:48:27;98688.39;;;-2.44;66.82
62436;BME280;48480;50.252;18.848;2023-01-30T00:50:52;98688.01;;;-2.48;66.94
62436;BME280;48480;50.252;18.848;2023-01-30T00:53:18;98678.70;;;-2.50;67.07
62436;BME280;48480;50.252;18.848;2023-01-30T00:55:44;98677.47;;;-2.49;67.14
62436;BME280;48480;50.252;18.848;2023-01-30T00:58:10;98674.06;;;-2.51;67.25
62436;BME280;48480;50.252;18.848;2023-01-30T01:00:36;98673.69;;;-2.56;67.37
62436;BME280;48480;50.252;18.848;2023-01-30T01:03:02;98668.29;;;-2.62;67.60
62436;BME280;48480;50.252;18.848;2023-01-30T01:05:28;98667.16;;;-2.68;67.67
62436;BME280;48480;50.252;18.848;2023-01-30T01:07:57;98665.20;;;-2.76;67.91
62436;BME280;48480;50.252;18.848;2023-01-30T01:10:23;98663.27;;;-2.79;67.99
62436;BME280;48480;50.252;18.848;2023-01-30T01:12:49;98657.09;;;-2.83;68.20
62436;BME280;48480;50.252;18.848;2023-01-30T01:15:17;98652.78;;;-2.86;68.56
62436;BME280;48480;50.252;18.848;2023-01-30T01:17:43;98643.36;;;-2.92;68.70
62436;BME280;48480;50.252;18.848;2023-01-30T01:20:09;98636.13;;;-2.97;69.01
62436;BME280;48480;50.252;18.848;2023-01-30T01:22:34;98635.87;;;-2.99;69.23
62436;BME280;48480;50.252;18.848;2023-01-30T01:25:00;98636.66;;;-3.01;69.34
62436;BME280;48480;50.252;18.848;2023-01-30T01:27:26;98628.73;;;-3.03;69.69
62436;BME280;48480;50.252;18.848;2023-01-30T01:29:53;98627.56;;;-3.03;69.86
62436;BME280;48480;50.252;18.848;2023-01-30T01:32:19;98620.37;;;-3.03;70.16
62436;BME280;48480;50.252;18.848;2023-01-30T01:34:45;98620.48;;;-3.02;70.29
62436;BME280;48480;50.252;18.848;2023-01-30T01:37:10;98615.84;;;-3.00;70.38
62436;BME280;48480;50.252;18.848;2023-01-30T01:39:36;98604.64;;;-2.99;70.58
62436;BME280;48480;50.252;18.848;2023-01-30T01:42:21;98590.55;;;-2.98;70.51
62436;BME280;48480;50.252;18.848;2023-01-30T01:47:53;98559.23;;;-3.02;70.80
62436;BME280;48480;50.252;18.848;2023-01-30T01:53:09;98542.06;;;-3.04;71.13
62436;BME280;48480;50.252;18.848;2023-01-30T01:55:37;98530.42;;;-3.05;71.28
62436;BME280;48480;50.252;18.848;2023-01-30T01:58:09;98524.55;;;-3.05;71.33
62436;BME280;48480;50.252;18.848;2023-01-30T02:00:36;98515.33;;;-3.06;71.46
62436;BME280;48480;50.252;18.848;2023-01-30T02:03:07;98512.59;;;-3.07;71.67
62436;BME280;48480;50.252;18.848;2023-01-30T02:05:39;98509.62;;;-3.08;71.72
62436;BME280;48480;50.252;18.848;2023-01-30T02:08:14;98507.67;;;-3.08;71.73
62436;BME280;48480;50.252;18.848;2023-01-30T02:11:09;98504.02;;;-3.09;71.89
62436;BME280;48480;50.252;18.848;2023-01-30T02:13:33;98499.58;;;-3.09;71.81
62436;BME280;48480;50.252;18.848;2023-01-30T02:16:00;98496.98;;;-3.09;72.09
62436;BME280;48480;50.252;18.848;2023-01-30T02:18:27;98490.88;;;-3.08;72.06
62436;BME280;48480;50.252;18.848;2023-01-30T02:34:57;98455.37;;;-3.04;72.08
62436;BME280;48480;50.252;18.848;2023-01-30T02:43:12;98444.91;;;-3.09;72.43
62436;BME280;48480;50.252;18.848;2023-01-30T02:45:47;98442.50;;;-3.10;72.51
62436;BME280;48480;50.252;18.848;2023-01-30T02:48:33;98432.52;;;-3.09;72.41
62436;BME280;48480;50.252;18.848;2023-01-30T02:51:44;98428.05;;;-3.08;72.53
62436;BME280;48480;50.252;18.848;2023-01-30T02:54:12;98434.66;;;-3.05;72.76
62436;BME280;48480;50.252;18.848;2023-01-30T02:56:45;98433.08;;;-3.04;72.86
62436;BME280;48480;50.252;18.848;2023-01-30T02:59:11;98428.42;;;-3.06;72.62
62436;BME280;48480;50.252;18.848;2023-01-30T03:04:45;98434.48;;;-2.96;72.75
62436;BME280;48480;50.252;18.848;2023-01-30T03:10:15;98422.92;;;-2.90;72.64
62436;BME280;48480;50.252;18.848;2023-01-30T03:12:51;98419.22;;;-2.88;72.56
62436;BME280;48480;50.252;18.848;2023-01-30T03:15:26;98415.33;;;-2.86;72.44
62436;BME280;48480;50.252;18.848;2023-01-30T03:17:54;98409.09;;;-2.83;72.43
62436;BME280;48480;50.252;18.848;2023-01-30T03:20:20;98412.21;;;-2.82;72.15
62436;BME280;48480;50.252;18.848;2023-01-30T03:22:46;98408.77;;;-2.83;72.34
62436;BME280;48480;50.252;18.848;2023-01-30T03:25:21;98408.96;;;-2.84;72.28
62436;BME280;48480;50.252;18.848;2023-01-30T03:27:54;98407.38;;;-2.84;72.26
62436;BME280;48480;50.252;18.848;2023-01-30T03:30:20;98399.48;;;-2.90;72.30
62436;BME280;48480;50.252;18.848;2023-01-30T03:32:47;98402.89;;;-2.86;72.27
62436;BME280;48480;50.252;18.848;2023-01-30T03:35:13;98401.73;;;-2.86;72.31
62436;BME280;48480;50.252;18.848;2023-01-30T03:37:43;98396.10;;;-2.84;72.30
62436;BME280;48480;50.252;18.848;2023-01-30T03:40:11;98389.26;;;-2.82;72.25
62436;BME280;48480;50.252;18.848;2023-01-30T03:42:36;98390.64;;;-2.81;72.35
62436;BME280;48480;50.252;18.848;2023-01-30T03:45:02;98387.95;;;-2.79;72.27
62436;BME280;48480;50.252;18.848;2023-01-30T03:47:27;98380.33;;;-2.78;72.30
62436;BME280;48480;50.252;18.848;2023-01-30T03:49:52;98374.65;;;-2.75;72.23
62436;BME280;48480;50.252;18.848;2023-01-30T03:52:18;98378.75;;;-2.73;72.27
62436;BME280;48480;50.252;18.848;2023-01-30T03:54:44;98373.54;;;-2.70;72.08
62436;BME280;48480;50.252;18.848;2023-01-30T03:57:09;98361.36;;;-2.68;72.13
62436;BME280;48480;50.252;18.848;2023-01-30T03:59:35;98355.68;;;-2.65;71.93
62436;BME280;48480;50.252;18.848;2023-01-30T04:02:00;98352.75;;;-2.63;71.79
62436;BME280;48480;50.252;18.848;2023-01-30T04:04:26;98348.73;;;-2.62;71.63
62436;BME280;48480;50.252;18.848;2023-01-30T04:06:51;98338.30;;;-2.62;71.68
62436;BME280;48480;50.252;18.848;2023-01-30T04:09:17;98327.64;;;-2.62;71.60
62436;BME280;48480;50.252;18.848;2023-01-30T04:11:42;98327.30;;;-2.61;71.48
62436;BME280;48480;50.252;18.848;2023-01-30T04:14:07;98328.70;;;-2.60;71.50
62436;BME280;48480;50.252;18.848;2023-01-30T04:16:33;98316.29;;;-2.60;71.39
62436;BME280;48480;50.252;18.848;2023-01-30T04:18:58;98314.36;;;-2.59;71.28
62436;BME280;48480;50.252;18.848;2023-01-30T04:21:24;98292.09;;;-2.71;71.25
62436;BME280;48480;50.252;18.848;2023-01-30T04:23:49;98307.83;;;-2.58;71.31
62436;BME280;48480;50.252;18.848;2023-01-30T04:26:14;98309.91;;;-2.56;71.11
62436;BME280;48480;50.252;18.848;2023-01-30T04:28:41;98303.45;;;-2.56;70.98
62436;BME280;48480;50.252;18.848;2023-01-30T04:31:07;98301.98;;;-2.56;71.03
62436;BME280;48480;50.252;18.848;2023-01-30T04:33:32;98299.20;;;-2.56;71.09
62436;BME280;48480;50.252;18.848;2023-01-30T04:36:03;98301.30;;;-2.56;70.97
62436;BME280;48480;50.252;18.848;2023-01-30T04:38:30;98295.16;;;-2.56;70.97
62436;BME280;48480;50.252;18.848;2023-01-30T04:40:57;98294.61;;;-2.55;70.83
62436;BME280;48480;50.252;18.848;2023-01-30T04:43:24;98290.21;;;-2.53;70.67
62436;BME280;48480;50.252;18.848;2023-01-30T04:45:51;98289.58;;;-2.56;70.74
62436;BME280;48480;50.252;18.848;2023-01-30T04:48:17;98289.83;;;-2.54;70.74
62436;BME280;48480;50.252;18.848;2023-01-30T04:50:45;98295.94;;;-2.48;70.65
62436;BME280;48480;50.252;18.848;2023-01-30T04:53:12;98289.70;;;-2.47;70.65
62436;BME280;48480;50.252;18.848;2023-01-30T04:55:37;98288.23;;;-2.44;70.69
62436;BME280;48480;50.252;18.848;2023-01-30T04:58:03;98286.44;;;-2.42;70.51
62436;BME280;48480;50.252;18.848;2023-01-30T05:00:29;98277.70;;;-2.37;70.44
62436;BME280;48480;50.252;18.848;2023-01-30T05:02:55;98267.92;;;-2.34;70.27
62436;BME280;48480;50.252;18.848;2023-01-30T05:05:22;98261.48;;;-2.29;70.22
62436;BME280;48480;50.252;18.848;2023-01-30T05:07:48;98250.54;;;-2.27;69.89
62436;BME280;48480;50.252;18.848;2023-01-30T05:10:14;98245.21;;;-2.28;69.88
62436;BME280;48480;50.252;18.848;2023-01-30T05:12:40;98251.40;;;-2.29;69.76
62436;BME280;48480;50.252;18.848;2023-01-30T05:15:06;98249.08;;;-2.29;69.52
62436;BME280;48480;50.252;18.848;2023-01-30T05:17:33;98249.81;;;-2.29;69.72
62436;BME280;48480;50.252;18.848;2023-01-30T05:19:58;98251.23;;;-2.29;69.57
62436;BME280;48480;50.252;18.848;2023-01-30T05:22:24;98239.70;;;-2.31;69.45
62436;BME280;48480;50.252;18.848;2023-01-30T05:24:49;98232.68;;;-2.33;69.44
62436;BME280;48480;50.252;18.848;2023-01-30T05:27:15;98234.02;;;-2.34;69.30
62436;BME280;48480;50.252;18.848;2023-01-30T05:29:40;98237.17;;;-2.34;69.40
62436;BME280;48480;50.252;18.848;2023-01-30T05:32:06;98230.14;;;-2.34;69.18
62436;BME280;48480;50.252;18.848;2023-01-30T05:34:31;98225.78;;;-2.34;69.22
62436;BME280;48480;50.252;18.848;2023-01-30T05:36:57;98238.71;;;-2.34;69.18
62436;BME280;48480;50.252;18.848;2023-01-30T05:39:22;98244.67;;;-2.35;69.22
62436;BME280;48480;50.252;18.848;2023-01-30T05:41:47;98235.28;;;-2.34;69.23
62436;BME280;48480;50.252;18.848;2023-01-30T05:44:13;98218.73;;;-2.31;69.28
62436;BME280;48480;50.252;18.848;2023-01-30T05:46:38;98214.69;;;-2.28;69.09
62436;BME280;48480;50.252;18.848;2023-01-30T05:49:04;98218.56;;;-2.25;68.84
62436;BME280;48480;50.252;18.848;2023-01-30T05:51:29;98204.48;;;-2.22;68.64
62436;BME280;48480;50.252;18.848;2023-01-30T05:53:55;98179.88;;;-2.20;68.60
62436;BME280;48480;50.252;18.848;2023-01-30T05:56:21;98164.37;;;-2.20;68.30
62436;BME280;48480;50.252;18.848;2023-01-30T05:58:52;98164.29;;;-2.17;68.37
62436;BME280;48480;50.252;18.848;2023-01-30T06:01:18;98151.98;;;-2.16;68.41
62436;BME280;48480;50.252;18.848;2023-01-30T06:03:44;98151.23;;;-2.17;68.15
62436;BME280;48480;50.252;18.848;2023-01-30T06:06:10;98153.44;;;-2.17;68.29
62436;BME280;48480;50.252;18.848;2023-01-30T06:08:36;98152.55;;;-2.15;68.11
62436;BME280;48480;50.252;18.848;2023-01-30T06:11:03;98157.66;;;-2.15;68.04
62436;BME280;48480;50.252;18.848;2023-01-30T06:13:30;98171.89;;;-2.15;67.97
62436;BME280;48480;50.252;18.848;2023-01-30T06:15:55;98163.16;;;-2.13;68.13
62436;BME280;48480;50.252;18.848;2023-01-30T06:18:21;98160.76;;;-2.12;68.02
62436;BME280;48480;50.252;18.848;2023-01-30T06:20:48;98157.57;;;-2.13;68.06
62436;BME280;48480;50.252;18.848;2023-01-30T06:23:15;98156.64;;;-2.13;67.96
62436;BME280;48480;50.252;18.848;2023-01-30T06:25:45;98153.27;;;-2.12;67.97
62436;BME280;48480;50.252;18.848;2023-01-30T06:28:11;98154.74;;;-2.10;68.04
62436;BME280;48480;50.252;18.848;2023-01-30T06:30:38;98148.10;;;-2.08;67.99
62436;BME280;48480;50.252;18.848;2023-01-30T06:33:04;98144.14;;;-2.08;67.78
62436;BME280;48480;50.252;18.848;2023-01-30T06:35:30;98136.09;;;-2.09;67.73
62436;BME280;48480;50.252;18.848;2023-01-30T06:37:55;98140.84;;;-2.08;67.76
62436;BME280;48480;50.252;18.848;2023-01-30T06:40:21;98137.84;;;-2.07;67.85
62436;BME280;48480;50.252;18.848;2023-01-30T06:42:47;98136.92;;;-2.03;67.82
62436;BME280;48480;50.252;18.848;2023-01-30T06:45:16;98139.94;;;-2.02;67.56
62436;BME280;48480;50.252;18.848;2023-01-30T06:47:47;98134.19;;;-2.03;67.62
62436;BME280;48480;50.252;18.848;2023-01-30T06:50:15;98130.51;;;-2.03;67.51
62436;BME280;48480;50.252;18.848;2023-01-30T06:52:45;98132.45;;;-2.03;67.50
62436;BME280;48480;50.252;18.848;2023-01-30T06:55:13;98135.60;;;-2.03;67.62
62436;BME280;48480;50.252;18.848;2023-01-30T06:57:40;98132.41;;;-2.02;67.41
62436;BME280;48480;50.252;18.848;2023-01-30T07:00:10;98125.43;;;-2.01;67.50
62436;BME280;48480;50.252;18.848;2023-01-30T07:02:36;98128.31;;;-2.01;67.37
62436;BME280;48480;50.252;18.848;2023-01-30T07:05:03;98118.54;;;-2.01;67.40
62436;BME280;48480;50.252;18.848;2023-01-30T07:07:30;98115.86;;;-1.98;67.40
62436;BME280;48480;50.252;18.848;2023-01-30T07:09:58;98114.87;;;-1.97;67.24
62436;BME280;48480;50.252;18.848;2023-01-30T07:12:24;98111.70;;;-1.98;67.27
62436;BME280;48480;50.252;18.848;2023-01-30T07:14:51;98084.83;;;-1.99;67.29
62436;BME280;48480;50.252;18.848;2023-01-30T07:17:17;98080.17;;;-1.97;67.38
62436;BME280;48480;50.252;18.848;2023-01-30T07:19:43;98075.65;;;-1.96;67.22
62436;BME280;48480;50.252;18.848;2023-01-30T07:22:11;98083.23;;;-1.95;67.11
62436;BME280;48480;50.252;18.848;2023-01-30T07:24:37;98078.58;;;-1.94;67.12
62436;BME280;48480;50.252;18.848;2023-01-30T07:27:09;98069.16;;;-1.95;67.18
62436;BME280;48480;50.252;18.848;2023-01-30T07:29:36;98063.89;;;-1.91;67.29
62436;BME280;48480;50.252;18.848;2023-01-30T07:32:03;98055.11;;;-1.91;67.09
62436;BME280;48480;50.252;18.848;2023-01-30T07:34:29;98063.70;;;-1.90;67.13
62436;BME280;48480;50.252;18.848;2023-01-30T07:36:54;98063.37;;;-1.95;66.98
62436;BME280;48480;50.252;18.848;2023-01-30T07:39:20;98071.88;;;-1.92;67.03
62436;BME280;48480;50.252;18.848;2023-01-30T07:41:45;98067.71;;;-1.92;67.19
62436;BME280;48480;50.252;18.848;2023-01-30T07:44:12;98065.17;;;-1.93;67.02
62436;BME280;48480;50.252;18.848;2023-01-30T07:46:38;98056.31;;;-1.92;67.11
62436;BME280;48480;50.252;18.848;2023-01-30T07:49:04;98045.92;;;-1.90;67.12
62436;BME280;48480;50.252;18.848;2023-01-30T07:51:30;98043.95;;;-1.87;66.98
62436;BME280;48480;50.252;18.848;2023-01-30T07:53:56;98044.19;;;-1.86;67.04
62436;BME280;48480;50.252;18.848;2023-01-30T07:56:21;98046.23;;;-1.85;67.02
62436;BME280;48480;50.252;18.848;2023-01-30T07:58:47;98041.60;;;-1.82;67.07
62436;BME280;48480;50.252;18.848;2023-01-30T08:01:13;98052.74;;;-1.79;66.97
62436;BME280;48480;50.252;18.848;2023-01-30T08:03:39;98058.96;;;-1.74;66.95
62436;BME280;48480;50.252;18.848;2023-01-30T08:06:05;98064.95;;;-1.71;66.86
62436;BME280;48480;50.252;18.848;2023-01-30T08:08:30;98058.23;;;-1.72;66.95
62436;BME280;48480;50.252;18.848;2023-01-30T08:10:56;98041.17;;;-1.74;66.89
62436;BME280;48480;50.252;18.848;2023-01-30T08:13:21;98033.92;;;-1.72;67.09
62436;BME280;48480;50.252;18.848;2023-01-30T08:15:47;98028.58;;;-1.72;67.14
62436;BME280;48480;50.252;18.848;2023-01-30T08:18:12;98027.95;;;-1.71;67.22
62436;BME280;48480;50.252;18.848;2023-01-30T08:20:38;98023.09;;;-1.68;67.14
62436;BME280;48480;50.252;18.848;2023-01-30T08:23:03;98018.64;;;-1.62;66.98
62436;BME280;48480;50.252;18.848;2023-01-30T08:25:29;98019.01;;;-1.47;66.99
62436;BME280;48480;50.252;18.848;2023-01-30T08:27:57;98016.42;;;-1.32;66.79
62436;BME280;48480;50.252;18.848;2023-01-30T08:30:24;98018.77;;;-1.22;66.47
62436;BME280;48480;50.252;18.848;2023-01-30T08:32:49;98016.01;;;-1.13;66.17
62436;BME280;48480;50.252;18.848;2023-01-30T08:35:15;98009.11;;;-1.13;65.92
62436;BME280;48480;50.252;18.848;2023-01-30T08:37:42;98019.81;;;-1.13;66.00
62436;BME280;48480;50.252;18.848;2023-01-30T08:40:09;98021.15;;;-1.10;65.83
62436;BME280;48480;50.252;18.848;2023-01-30T08:42:35;98015.18;;;-1.11;65.81
62436;BME280;48480;50.252;18.848;2023-01-30T08:45:00;98016.17;;;-1.13;65.83
62436;BME280;48480;50.252;18.848;2023-01-30T08:47:26;98019.00;;;-1.14;65.95
62436;BME280;48480;50.252;18.848;2023-01-30T08:49:52;98020.89;;;-1.15;66.03
62436;BME280;48480;50.252;18.848;2023-01-30T08:52:18;98015.34;;;-1.18;66.02
62436;BME280;48480;50.252;18.848;2023-01-30T08:54:44;98018.55;;;-1.17;66.29
62436;BME280;48480;50.252;18.848;2023-01-30T08:57:10;98013.94;;;-1.16;66.19
62436;BME280;48480;50.252;18.848;2023-01-30T08:59:35;98010.66;;;-1.17;65.88
62436;BME280;48480;50.252;18.848;2023-01-30T09:02:01;98005.38;;;-1.21;66.04
62436;BME280;48480;50.252;18.848;2023-01-30T09:04:30;98007.88;;;-1.17;66.00
62436;BME280;48480;50.252;18.848;2023-01-30T09:06:56;98008.79;;;-1.21;66.24
62436;BME280;48480;50.252;18.848;2023-01-30T09:09:22;98012.31;;;-1.14;66.17
62436;BME280;48480;50.252;18.848;2023-01-30T09:11:47;98002.55;;;-1.12;66.28
62436;BME280;48480;50.252;18.848;2023-01-30T09:14:14;97994.30;;;-1.09;66.15
62436;BME280;48480;50.252;18.848;2023-01-30T09:16:45;97985.21;;;-1.08;66.04
62436;BME280;48480;50.252;18.848;2023-01-30T09:19:10;97981.75;;;-1.06;66.23
62436;BME280;48480;50.252;18.848;2023-01-30T09:21:36;97977.89;;;-1.01;66.11
62436;BME280;48480;50.252;18.848;2023-01-30T09:24:04;97983.82;;;-0.98;66.18
62436;BME280;48480;50.252;18.848;2023-01-30T09:26:30;97934.91;;;-1.20;66.32
62436;BME280;48480;50.252;18.848;2023-01-30T09:28:56;97974.10;;;-0.95;66.50
62436;BME280;48480;50.252;18.848;2023-01-30T09:31:21;97965.05;;;-0.94;66.52
62436;BME280;48480;50.252;18.848;2023-01-30T09:33:46;97936.96;;;-1.12;66.88
62436;BME280;48480;50.252;18.848;2023-01-30T09:36:12;97967.59;;;-0.92;66.80
62436;BME280;48480;50.252;18.848;2023-01-30T09:38:37;97971.09;;;-0.88;66.86
62436;BME280;48480;50.252;18.848;2023-01-30T09:54:26;97934.59;;;-0.72;67.94
62436;BME280;48480;50.252;18.848;2023-01-30T09:57:07;97921.31;;;-0.81;67.83
62436;BME280;48480;50.252;18.848;2023-01-30T10:02:50;97914.50;;;-0.84;70.03
62436;BME280;48480;50.252;18.848;2023-01-30T10:05:18;97906.77;;;-0.92;70.74
62436;BME280;48480;50.252;18.848;2023-01-30T10:16:07;97905.00;;;-1.12;71.89
62436;BME280;48480;50.252;18.848;2023-01-30T10:18:41;97904.95;;;-1.11;72.44
62436;BME280;48480;50.252;18.848;2023-01-30T10:21:19;97901.79;;;-1.12;72.55
62436;BME280;48480;50.252;18.848;2023-01-30T10:26:43;97882.35;;;-1.15;73.01
62436;BME280;48480;50.252;18.848;2023-01-30T10:29:17;97879.80;;;-1.16;73.36
62436;BME280;48480;50.252;18.848;2023-01-30T10:32:02;97878.12;;;-1.17;73.79
62436;BME280;48480;50.252;18.848;2023-01-30T10:34:41;97873.89;;;-1.20;74.08
62436;BME280;48480;50.252;18.848;2023-01-30T10:40:19;97858.02;;;-1.24;74.05
62436;BME280;48480;50.252;18.848;2023-01-30T10:46:05;97850.59;;;-1.16;74.16
62436;BME280;48480;50.252;18.848;2023-01-30T10:55:18;97858.44;;;-0.99;73.27
62436;BME280;48480;50.252;18.848;2023-01-30T11:00:46;97840.17;;;-0.95;73.08
62436;BME280;48480;50.252;18.848;2023-01-30T11:06:14;97826.46;;;-0.91;73.37
62436;BME280;48480;50.252;18.848;2023-01-30T11:09:07;97824.75;;;-0.88;73.49
62436;BME280;48480;50.252;18.848;2023-01-30T11:11:47;97815.85;;;-0.85;73.63
62436;BME280;48480;50.252;18.848;2023-01-30T11:14:19;97804.39;;;-0.82;73.41
62436;BME280;48480;50.252;18.848;2023-01-30T11:16:50;97811.57;;;-0.77;73.17
62436;BME280;48480;50.252;18.848;2023-01-30T11:19:22;97812.79;;;-0.74;73.11
62436;BME280;48480;50.252;18.848;2023-01-30T11:21:53;97812.84;;;-0.71;73.06
62436;BME280;48480;50.252;18.848;2023-01-30T11:24:39;97801.05;;;-0.70;73.32
62436;BME280;48480;50.252;18.848;2023-01-30T11:27:24;97785.16;;;-0.69;73.56
62436;BME280;48480;50.252;18.848;2023-01-30T11:30:05;97774.42;;;-0.64;73.51
62436;BME280;48480;50.252;18.848;2023-01-30T11:32:31;97757.75;;;-0.70;74.32
62436;BME280;48480;50.252;18.848;2023-01-30T11:35:24;97766.89;;;-0.64;74.91
62436;BME280;48480;50.252;18.848;2023-01-30T11:37:51;97758.93;;;-0.62;74.79
62436;BME280;48480;50.252;18.848;2023-01-30T11:42:49;97747.20;;;-0.62;75.31
62436;BME280;48480;50.252;18.848;2023-01-30T11:45:19;97746.30;;;-0.59;75.33
62436;BME280;48480;50.252;18.848;2023-01-30T11:47:52;97742.31;;;-0.56;75.25
62436;BME280;48480;50.252;18.848;2023-01-30T11:50:22;97732.88;;;-0.53;75.52
62436;BME280;48480;50.252;18.848;2023-01-30T11:52:51;97725.71;;;-0.52;75.48
62436;BME280;48480;50.252;18.848;2023-01-30T11:55:18;97724.71;;;-0.52;75.60
62436;BME280;48480;50.252;18.848;2023-01-30T11:57:51;97713.27;;;-0.52;75.60
62436;BME280;48480;50.252;18.848;2023-01-30T12:00:30;97716.34;;;-0.49;75.96
62436;BME280;48480;50.252;18.848;2023-01-30T12:03:05;97712.45;;;-0.47;75.77
62436;BME280;48480;50.252;18.848;2023-01-30T12:05:37;97720.41;;;-0.43;75.75
62436;BME280;48480;50.252;18.848;2023-01-30T12:10:47;97713.41;;;-0.35;75.95
62436;BME280;48480;50.252;18.848;2023-01-30T12:15:44;97707.99;;;-0.23;75.65
62436;BME280;48480;50.252;18.848;2023-01-30T12:18:27;97702.89;;;-0.16;75.54
62436;BME280;48480;50.252;18.848;2023-01-30T12:21:02;97699.29;;;-0.15;75.43
62436;BME280;48480;50.252;18.848;2023-01-30T12:24:02;97709.64;;;-0.05;75.47
62436;BME280;48480;50.252;18.848;2023-01-30T12:26:39;97707.30;;;-0.01;75.52
62436;BME280;48480;50.252;18.848;2023-01-30T12:29:22;97708.27;;;0.01;75.45
62436;BME280;48480;50.252;18.848;2023-01-30T12:34:25;97708.84;;;-0.02;76.40
62436;BME280;48480;50.252;18.848;2023-01-30T12:37:04;97704.84;;;-0.06;77.05
62436;BME280;48480;50.252;18.848;2023-01-30T12:39:42;97696.50;;;-0.07;77.49
62436;BME280;48480;50.252;18.848;2023-01-30T12:42:20;97697.98;;;-0.08;77.90
62436;BME280;48480;50.252;18.848;2023-01-30T12:48:06;97687.98;;;-0.13;78.73
62436;BME280;48480;50.252;18.848;2023-01-30T13:01:39;97673.30;;;-0.10;79.59
62436;BME280;48480;50.252;18.848;2023-01-30T13:07:21;97670.30;;;-0.11;79.89
62436;BME280;48480;50.252;18.848;2023-01-30T13:10:12;97671.02;;;-0.08;79.90
62436;BME280;48480;50.252;18.848;2023-01-30T13:18:52;97651.52;;;-0.03;79.80
62436;BME280;48480;50.252;18.848;2023-01-30T13:21:43;97661.05;;;0.01;79.76
62436;BME280;48480;50.252;18.848;2023-01-30T13:24:24;97659.52;;;0.04;79.44
62436;BME280;48480;50.252;18.848;2023-01-30T13:26:52;97661.15;;;0.07;79.48
62436;BME280;48480;50.252;18.848;2023-01-30T13:29:31;97646.77;;;0.03;79.31
62436;BME280;48480;50.252;18.848;2023-01-30T13:32:08;97654.34;;;0.11;79.08
62436;BME280;48480;50.252;18.848;2023-01-30T13:34:39;97645.33;;;0.14;78.96
62436;BME280;48480;50.252;18.848;2023-01-30T13:37:14;97650.91;;;0.17;78.82
62436;BME280;48480;50.252;18.848;2023-01-30T13:40:03;97652.27;;;0.21;78.62
62436;BME280;48480;50.252;18.848;2023-01-30T13:42:43;97648.77;;;0.27;78.23
62436;BME280;48480;50.252;18.848;2023-01-30T13:45:31;97650.54;;;0.33;78.00
62436;BME280;48480;50.252;18.848;2023-01-30T14:01:21;97621.48;;;0.94;75.97
62436;BME280;48480;50.252;18.848;2023-01-30T14:03:48;97623.48;;;1.04;75.58
62436;BME280;48480;50.252;18.848;2023-01-30T14:06:32;97625.30;;;1.10;75.21
62436;BME280;48480;50.252;18.848;2023-01-30T14:11:47;97625.86;;;1.13;74.82
62436;BME280;48480;50.252;18.848;2023-01-30T14:16:45;97633.13;;;1.10;74.46
62436;BME280;48480;50.252;18.848;2023-01-30T14:21:55;97619.74;;;1.03;74.57
62436;BME280;48480;50.252;18.848;2023-01-30T14:24:22;97625.41;;;1.08;74.56
62436;BME280;48480;50.252;18.848;2023-01-30T14:45:53;97627.91;;;0.96;74.59
62436;BME280;48480;50.252;18.848;2023-01-30T14:48:42;97630.76;;;0.96;74.74
62436;BME280;48480;50.252;18.848;2023-01-30T14:51:35;97636.41;;;0.96;74.86
62436;BME280;48480;50.252;18.848;2023-01-30T14:56:56;97636.77;;;1.00;74.97
62436;BME280;48480;50.252;18.848;2023-01-30T14:59:37;97644.37;;;1.01;75.15
62436;BME280;48480;50.252;18.848;2023-01-30T15:07:48;97649.69;;;1.03;75.10
62436;BME280;48480;50.252;18.848;2023-01-30T15:18:42;97653.52;;;1.08;75.27
62436;BME280;48480;50.252;18.848;2023-01-30T15:24:06;97658.83;;;1.12;75.19
62436;BME280;48480;50.252;18.848;2023-01-30T15:32:23;97671.27;;;1.19;75.23
62436;BME280;48480;50.252;18.848;2023-01-30T15:34:59;97679.34;;;1.21;75.19
62436;BME280;48480;50.252;18.848;2023-01-30T15:37:47;97683.34;;;1.23;75.50
62436;BME280;48480;50.252;18.848;2023-01-30T15:50:56;97689.31;;;1.32;75.97
62436;BME280;48480;50.252;18.848;2023-01-30T15:53:35;97688.15;;;1.31;75.91
62436;BME280;48480;50.252;18.848;2023-01-30T15:56:05;97685.84;;;1.32;75.86
62436;BME280;48480;50.252;18.848;2023-01-30T15:58:42;97687.73;;;1.33;75.85
62436;BME280;48480;50.252;18.848;2023-01-30T16:01:10;97693.05;;;1.36;75.80
62436;BME280;48480;50.252;18.848;2023-01-30T16:03:41;97702.96;;;1.39;75.63
62436;BME280;48480;50.252;18.848;2023-01-30T16:09:03;97707.14;;;1.49;75.35
62436;BME280;48480;50.252;18.848;2023-01-30T16:11:40;97703.73;;;1.53;75.24
62436;BME280;48480;50.252;18.848;2023-01-30T16:14:22;97711.79;;;1.55;75.19